createdAt,value
2023-03-29T00:00:55.671Z,219.52
2023-03-29T00:01:55.639Z,221.07
2023-03-29T00:04:55.545Z,219.11
2023-03-29T00:05:55.503Z,220.24
2023-03-29T00:08:55.425Z,219.33
2023-03-29T00:10:55.364Z,219.78
2023-03-29T00:12:55.294Z,219.67
2023-03-29T00:13:55.356Z,219.24
2023-03-29T00:14:55.240Z,218.82
2023-03-29T00:18:55.101Z,219.92
2023-03-29T00:20:55.050Z,219.31
2023-03-29T00:21:55.002Z,219.26
2023-03-29T00:23:54.949Z,220.08
2023-03-29T00:24:54.920Z,221.10
2023-03-29T00:25:55.862Z,220.99
2023-03-29T00:26:54.968Z,220.13
2023-03-29T00:30:55.067Z,220.06
2023-03-29T00:32:54.705Z,219.61
2023-03-29T00:34:54.620Z,220.94
2023-03-29T00:36:54.554Z,221.50
2023-03-29T00:37:54.521Z,221.36
2023-03-29T00:41:54.402Z,221.83
2023-03-29T00:43:54.369Z,220.94
2023-03-29T00:44:54.347Z,222.30
2023-03-29T00:46:54.305Z,220.94
2023-03-29T00:48:54.237Z,220.37
2023-03-29T00:52:54.112Z,222.27
2023-03-29T00:53:54.076Z,221.79
2023-03-29T00:56:54.058Z,220.01
2023-03-29T00:57:53.970Z,221.02
2023-03-29T00:58:53.946Z,222.26
2023-03-29T00:59:53.933Z,220.97
2023-03-29T01:03:53.910Z,221.39
2023-03-29T01:05:53.768Z,222.02
2023-03-29T01:08:53.709Z,222.31
2023-03-29T01:09:53.711Z,221.13
2023-03-29T01:11:53.642Z,221.23
2023-03-29T01:14:53.570Z,222.56
2023-03-29T01:17:53.584Z,221.26
2023-03-29T01:18:53.481Z,220.82
2023-03-29T01:20:53.449Z,221.31
2023-03-29T01:23:53.398Z,221.92
2023-03-29T01:24:53.366Z,222.28
2023-03-29T01:25:53.325Z,222.07
2023-03-29T01:29:53.268Z,221.59
2023-03-29T01:30:53.198Z,220.58
2023-03-29T01:33:53.157Z,220.55
2023-03-29T01:34:54.694Z,221.62
2023-03-29T01:38:53.021Z,222.46
2023-03-29T01:39:53.027Z,222.60
2023-03-29T01:40:52.965Z,220.67
2023-03-29T01:45:52.941Z,221.27
2023-03-29T01:47:52.860Z,221.38
2023-03-29T01:50:52.731Z,220.98
2023-03-29T01:51:52.705Z,221.17
2023-03-29T01:54:52.630Z,221.06
2023-03-29T01:56:52.599Z,221.91
2023-03-29T01:59:52.545Z,220.91
2023-03-29T02:00:52.485Z,220.24
2023-03-29T02:01:52.538Z,221.66
2023-03-29T02:05:52.401Z,221.68
2023-03-29T02:07:52.298Z,222.43
2023-03-29T02:09:52.260Z,221.70
2023-03-29T02:10:52.232Z,220.70
2023-03-29T02:12:52.195Z,222.03
2023-03-29T02:16:52.067Z,221.36
2023-03-29T02:18:52.032Z,221.21
2023-03-29T02:19:52.035Z,220.39
2023-03-29T02:21:51.942Z,220.94
2023-03-29T02:22:51.942Z,220.71
2023-03-29T02:24:51.876Z,220.95
2023-03-29T02:25:51.842Z,220.73
2023-03-29T02:26:51.853Z,220.39
2023-03-29T02:27:51.819Z,220.78
2023-03-29T02:28:51.792Z,220.97
2023-03-29T02:32:51.742Z,219.53
2023-03-29T02:35:51.668Z,212.70
2023-03-29T02:36:51.562Z,205.43
2023-03-29T02:37:51.595Z,199.77
2023-03-29T02:40:51.457Z,168.74
2023-03-29T02:44:51.370Z,114.69
2023-03-29T02:45:51.405Z,105.35
2023-03-29T02:46:51.408Z,97.98
2023-03-29T02:49:51.257Z,82.34
2023-03-29T02:50:51.254Z,71.92
2023-03-29T02:55:51.117Z,25.73
2023-03-29T02:56:51.160Z,27.24
2023-03-29T02:59:51.054Z,24.87
2023-03-29T03:00:50.968Z,25.00
2023-03-29T03:06:50.872Z,32.84
2023-03-29T03:07:50.802Z,31.57
2023-03-29T03:12:50.674Z,33.67
2023-03-29T03:13:50.692Z,32.59
2023-03-29T03:14:50.647Z,29.33
2023-03-29T03:16:50.638Z,27.00
2023-03-29T03:19:50.551Z,25.38
2023-03-29T03:22:50.414Z,31.45
2023-03-29T03:23:50.436Z,28.19
2023-03-29T03:27:50.399Z,37.78
2023-03-29T03:32:50.222Z,37.99
2023-03-29T03:34:50.161Z,36.66
2023-03-29T03:36:50.093Z,34.49
2023-03-29T03:40:49.997Z,26.85
2023-03-29T03:43:50.133Z,27.93
2023-03-29T03:46:49.864Z,27.13
2023-03-29T03:48:49.821Z,25.81
2023-03-29T03:52:49.737Z,25.00
2023-03-29T03:53:49.701Z,26.65
2023-03-29T03:59:49.549Z,24.93
2023-03-29T04:00:49.520Z,25.69
2023-03-29T04:01:49.513Z,22.70
2023-03-29T04:02:49.537Z,21.08
2023-03-29T04:04:49.416Z,26.39
2023-03-29T04:09:49.324Z,27.04
2023-03-29T04:10:49.269Z,28.39
2023-03-29T04:11:49.257Z,25.11
2023-03-29T04:13:49.226Z,24.78
2023-03-29T04:14:49.224Z,25.27
2023-03-29T04:18:49.212Z,28.31
2023-03-29T04:20:49.101Z,24.95
2023-03-29T04:22:49.036Z,12.70
2023-03-29T04:24:49.044Z,0.00
2023-03-29T04:26:48.983Z,0.00
2023-03-29T04:27:48.983Z,0.00
2023-03-29T04:31:48.960Z,43.20
2023-03-29T04:34:48.888Z,58.90
2023-03-29T04:36:48.835Z,60.31
2023-03-29T04:37:48.839Z,62.63
2023-03-29T04:41:48.793Z,66.10
2023-03-29T04:44:48.744Z,71.85
2023-03-29T04:45:48.677Z,73.24
2023-03-29T04:46:48.770Z,72.18
2023-03-29T04:48:48.593Z,72.34
2023-03-29T04:51:48.512Z,72.35
2023-03-29T04:52:48.480Z,74.97
2023-03-29T04:57:48.337Z,74.67
2023-03-29T04:59:48.322Z,77.03
2023-03-29T05:01:48.319Z,80.55
2023-03-29T05:02:48.286Z,80.33
2023-03-29T05:05:48.185Z,76.61
2023-03-29T05:08:48.123Z,80.98
2023-03-29T05:09:48.193Z,83.50
2023-03-29T05:11:48.090Z,80.07
2023-03-29T05:16:48.003Z,87.11
2023-03-29T05:17:48.000Z,90.17
2023-03-29T05:18:47.969Z,90.29
2023-03-29T05:21:47.939Z,90.78
2023-03-29T05:22:47.917Z,90.44
2023-03-29T05:24:47.881Z,91.14
2023-03-29T05:28:47.839Z,91.48
2023-03-29T05:31:47.811Z,100.74
2023-03-29T05:32:47.817Z,105.03
2023-03-29T05:33:47.744Z,104.89
2023-03-29T05:34:52.836Z,108.12
2023-03-29T05:37:48.225Z,110.09
2023-03-29T05:40:47.593Z,119.15
2023-03-29T05:41:47.850Z,122.37
2023-03-29T05:45:47.543Z,133.96
2023-03-29T05:46:48.180Z,135.84
2023-03-29T05:47:47.693Z,138.88
2023-03-29T05:50:47.373Z,150.02
2023-03-29T05:52:47.337Z,150.72
2023-03-29T05:53:47.337Z,154.32
2023-03-29T05:54:47.512Z,155.50
2023-03-29T05:55:47.678Z,159.20
2023-03-29T05:56:47.455Z,162.00
2023-03-29T05:59:47.207Z,165.27
2023-03-29T06:00:47.113Z,164.32
2023-03-29T06:02:47.203Z,156.72
2023-03-29T06:06:47.026Z,160.10
2023-03-29T06:09:46.993Z,158.94
2023-03-29T06:10:46.913Z,158.06
2023-03-29T06:11:46.847Z,158.23
2023-03-29T06:12:46.922Z,153.07
2023-03-29T06:13:46.821Z,159.04
2023-03-29T06:18:46.719Z,180.21
2023-03-29T06:21:47.217Z,175.42
2023-03-29T06:22:46.639Z,173.54
2023-03-29T06:24:46.587Z,172.32
2023-03-29T06:25:46.784Z,169.51
2023-03-29T06:28:47.381Z,173.95
2023-03-29T06:30:46.623Z,166.31
2023-03-29T06:31:47.337Z,166.37
2023-03-29T06:32:46.445Z,163.00
2023-03-29T06:33:46.368Z,160.80
2023-03-29T06:36:47.240Z,158.42
2023-03-29T06:40:46.215Z,152.60
2023-03-29T06:41:46.196Z,154.51
2023-03-29T06:44:46.114Z,162.90
2023-03-29T06:45:46.118Z,164.64
2023-03-29T06:49:45.986Z,172.49
2023-03-29T06:50:45.986Z,173.81
2023-03-29T06:52:46.154Z,180.83
2023-03-29T06:53:46.728Z,184.58
2023-03-29T06:54:46.048Z,191.25
2023-03-29T06:55:45.838Z,194.07
2023-03-29T06:56:46.064Z,195.44
2023-03-29T06:57:45.799Z,197.47
2023-03-29T07:02:45.750Z,209.46
2023-03-29T07:03:46.743Z,216.25
2023-03-29T07:05:46.248Z,225.66
2023-03-29T07:06:45.542Z,226.98
2023-03-29T07:08:45.540Z,233.70
2023-03-29T07:10:45.407Z,239.19
2023-03-29T07:13:45.307Z,241.95
2023-03-29T07:16:45.238Z,232.14
2023-03-29T07:19:47.745Z,220.44
2023-03-29T07:20:45.350Z,216.23
2023-03-29T07:21:45.277Z,213.79
2023-03-29T07:24:45.222Z,210.89
2023-03-29T07:28:45.048Z,207.28
2023-03-29T07:30:45.000Z,202.76
2023-03-29T07:32:44.992Z,195.15
2023-03-29T07:34:44.899Z,195.18
2023-03-29T07:35:44.847Z,197.55
2023-03-29T07:36:44.957Z,199.80
2023-03-29T07:37:45.816Z,201.27
2023-03-29T07:39:45.399Z,206.69
2023-03-29T07:41:44.830Z,215.56
2023-03-29T07:43:44.595Z,222.12
2023-03-29T07:44:44.563Z,225.15
2023-03-29T07:49:44.683Z,236.65
2023-03-29T07:51:44.704Z,238.66
2023-03-29T07:52:44.738Z,241.70
2023-03-29T07:53:44.578Z,245.70
2023-03-29T07:55:46.545Z,249.58
2023-03-29T07:56:44.765Z,250.00
2023-03-29T07:57:44.826Z,250.00
2023-03-29T08:02:44.883Z,249.78
2023-03-29T08:04:44.405Z,248.07
2023-03-29T08:05:44.409Z,242.66
2023-03-29T08:06:44.326Z,236.80
2023-03-29T08:07:45.720Z,233.69
2023-03-29T08:12:44.247Z,214.18
2023-03-29T08:13:44.811Z,211.59
2023-03-29T08:14:44.784Z,208.07
2023-03-29T08:15:44.134Z,205.61
2023-03-29T08:17:44.093Z,205.80
2023-03-29T08:19:50.894Z,203.23
2023-03-29T08:20:45.066Z,201.13
2023-03-29T08:24:44.817Z,189.52
2023-03-29T08:25:50.736Z,183.26
2023-03-29T08:26:43.827Z,179.53
2023-03-29T08:27:43.779Z,181.07
2023-03-29T08:30:43.756Z,173.53
2023-03-29T08:31:43.753Z,164.06
2023-03-29T08:33:43.658Z,154.47
2023-03-29T08:35:43.794Z,150.84
2023-03-29T08:36:43.606Z,148.55
2023-03-29T08:38:43.569Z,153.93
2023-03-29T08:40:43.551Z,159.11
2023-03-29T08:45:43.310Z,175.33
2023-03-29T08:46:43.509Z,177.07
2023-03-29T08:48:43.263Z,180.88
2023-03-29T08:52:43.239Z,149.21
2023-03-29T08:55:43.083Z,48.17
2023-03-29T08:56:43.798Z,44.42
2023-03-29T08:59:43.208Z,78.54
2023-03-29T09:01:43.829Z,78.92
2023-03-29T09:04:43.222Z,101.94
2023-03-29T09:05:43.750Z,116.74
2023-03-29T09:08:43.326Z,125.89
2023-03-29T09:09:43.742Z,131.81
2023-03-29T09:10:43.860Z,135.35
2023-03-29T09:12:43.001Z,139.83
2023-03-29T09:13:43.318Z,139.50
2023-03-29T09:15:43.974Z,142.59
2023-03-29T09:17:42.906Z,141.87
2023-03-29T09:18:42.894Z,144.12
2023-03-29T09:19:42.882Z,153.42
2023-03-29T09:20:42.961Z,167.47
2023-03-29T09:21:42.882Z,167.46
2023-03-29T09:27:42.663Z,185.40
2023-03-29T09:28:43.855Z,187.67
2023-03-29T09:29:42.727Z,190.58
2023-03-29T09:30:42.671Z,194.13
2023-03-29T09:31:44.386Z,198.98
2023-03-29T09:32:42.585Z,203.55
2023-03-29T09:33:42.678Z,207.21
2023-03-29T09:37:42.525Z,219.24
2023-03-29T09:38:42.439Z,222.26
2023-03-29T09:39:42.402Z,224.98
2023-03-29T09:40:42.465Z,228.92
2023-03-29T09:41:42.302Z,230.95
2023-03-29T09:42:43.808Z,232.68
2023-03-29T09:45:42.286Z,240.58
2023-03-29T09:48:42.108Z,248.57
2023-03-29T09:49:42.079Z,250.00
2023-03-29T09:51:42.009Z,249.54
2023-03-29T09:52:41.982Z,249.89
2023-03-29T09:53:42.125Z,249.36
2023-03-29T09:56:42.004Z,250.00
2023-03-29T09:57:42.048Z,249.79
2023-03-29T09:58:42.818Z,249.88
2023-03-29T09:59:42.305Z,249.50
2023-03-29T10:00:41.789Z,249.92
2023-03-29T10:01:41.889Z,249.64
2023-03-29T10:05:41.902Z,251.18
2023-03-29T10:08:41.699Z,250.00
2023-03-29T10:09:41.540Z,249.89
2023-03-29T10:10:41.506Z,249.57
2023-03-29T10:11:42.373Z,250.00
2023-03-29T10:12:42.327Z,250.00
2023-03-29T10:13:42.429Z,249.53
2023-03-29T10:18:41.167Z,249.38
2023-03-29T10:19:41.130Z,249.52
2023-03-29T10:21:41.037Z,249.93
2023-03-29T10:23:40.968Z,250.00
2023-03-29T10:24:41.008Z,249.83
2023-03-29T10:25:42.500Z,249.44
2023-03-29T10:28:40.776Z,250.00
2023-03-29T10:31:40.708Z,249.60
2023-03-29T10:33:40.610Z,249.82
2023-03-29T10:34:40.793Z,249.51
2023-03-29T10:36:40.621Z,249.16
2023-03-29T10:38:40.417Z,249.36
2023-03-29T10:44:40.328Z,248.96
2023-03-29T10:45:40.165Z,249.77
2023-03-29T10:46:40.292Z,248.52
2023-03-29T10:48:40.069Z,249.42
2023-03-29T10:49:40.056Z,249.80
2023-03-29T10:52:39.929Z,249.83
2023-03-29T10:53:39.969Z,248.07
2023-03-29T10:56:39.890Z,248.58
2023-03-29T10:57:39.813Z,248.35
2023-03-29T10:58:39.731Z,249.22
2023-03-29T11:00:39.667Z,249.42
2023-03-29T11:02:39.642Z,248.80
2023-03-29T11:03:40.642Z,249.33
2023-03-29T11:06:39.479Z,247.97
2023-03-29T11:07:39.443Z,247.41
2023-03-29T11:09:39.382Z,247.81
2023-03-29T11:11:39.299Z,247.03
2023-03-29T11:14:39.210Z,239.17
2023-03-29T11:16:39.263Z,237.44
2023-03-29T11:18:39.046Z,232.96
2023-03-29T11:21:38.957Z,230.69
2023-03-29T11:22:38.955Z,230.90
2023-03-29T11:24:38.874Z,228.44
2023-03-29T11:26:38.843Z,227.93
2023-03-29T11:29:38.677Z,221.24
2023-03-29T11:30:39.480Z,222.97
2023-03-29T11:32:38.698Z,221.63
2023-03-29T11:34:38.521Z,221.04
2023-03-29T11:35:39.421Z,221.11
2023-03-29T11:36:38.391Z,221.38
2023-03-29T11:37:38.412Z,221.62
2023-03-29T11:39:38.293Z,222.57
2023-03-29T11:42:38.257Z,221.80
2023-03-29T11:45:38.206Z,220.34
2023-03-29T11:46:38.168Z,220.82
2023-03-29T11:47:38.135Z,219.61
2023-03-29T11:51:37.905Z,216.15
2023-03-29T11:53:37.918Z,214.09
2023-03-29T11:55:37.855Z,210.49
2023-03-29T11:56:38.070Z,210.26
2023-03-29T11:57:38.326Z,210.96
2023-03-29T11:59:37.636Z,210.88
2023-03-29T12:04:37.470Z,209.81
2023-03-29T12:05:37.474Z,210.16
2023-03-29T12:07:37.472Z,208.28
2023-03-29T12:08:37.317Z,208.63
2023-03-29T12:09:37.278Z,208.56
2023-03-29T12:11:37.248Z,208.29
2023-03-29T12:15:37.084Z,210.82
2023-03-29T12:16:37.073Z,214.49
2023-03-29T12:17:37.037Z,215.05
2023-03-29T12:18:36.953Z,214.86
2023-03-29T12:22:36.832Z,219.41
2023-03-29T12:23:36.822Z,219.48
2023-03-29T12:28:36.586Z,222.82
2023-03-29T12:29:36.653Z,224.52
2023-03-29T12:30:36.528Z,226.12
2023-03-29T12:33:36.419Z,225.68
2023-03-29T12:36:36.409Z,228.38
2023-03-29T12:38:36.264Z,229.77
2023-03-29T12:39:36.249Z,227.68
2023-03-29T12:40:36.195Z,230.40
2023-03-29T12:41:36.162Z,229.31
2023-03-29T12:42:36.116Z,230.49
2023-03-29T12:44:36.037Z,230.24
2023-03-29T12:46:36.054Z,226.80
2023-03-29T12:47:36.920Z,221.88
2023-03-29T12:48:35.852Z,220.36
2023-03-29T12:49:36.006Z,220.36
2023-03-29T12:50:36.455Z,221.13
2023-03-29T12:51:35.799Z,219.98
2023-03-29T12:52:35.703Z,220.45
2023-03-29T12:53:35.689Z,219.03
2023-03-29T12:54:35.811Z,217.96
2023-03-29T12:55:35.685Z,216.11
2023-03-29T12:56:35.581Z,216.15
2023-03-29T12:57:35.523Z,215.74
2023-03-29T12:58:35.472Z,215.72
2023-03-29T12:59:35.463Z,214.56
2023-03-29T13:00:35.395Z,214.03
2023-03-29T13:01:35.457Z,212.05
2023-03-29T13:02:35.475Z,213.52
2023-03-29T13:04:04.948Z,25.00
2023-03-29T13:05:12.225Z,25.00
2023-03-29T13:06:12.189Z,25.00
2023-03-29T13:07:12.195Z,25.00
2023-03-29T13:08:12.228Z,25.00
2023-03-29T13:09:12.188Z,25.00
2023-03-29T13:10:12.217Z,25.43
2023-03-29T13:11:12.165Z,30.59
2023-03-29T13:12:12.202Z,30.52
2023-03-29T13:13:12.167Z,34.62
2023-03-29T13:14:12.168Z,37.71
2023-03-29T13:15:12.138Z,34.45
2023-03-29T13:16:12.293Z,34.88
2023-03-29T13:17:18.836Z,39.54
2023-03-29T13:18:13.173Z,40.03
2023-03-29T13:19:12.111Z,41.13
2023-03-29T13:20:12.097Z,40.04
2023-03-29T13:21:12.138Z,40.24
2023-03-29T13:22:12.079Z,41.90
2023-03-29T13:23:12.099Z,47.38
2023-03-29T13:24:12.047Z,52.29
2023-03-29T13:25:12.897Z,45.89
2023-03-29T13:26:12.059Z,45.88
2023-03-29T13:27:12.037Z,47.72
2023-03-29T13:28:12.020Z,41.53
2023-03-29T13:29:12.046Z,47.19
2023-03-29T13:30:12.021Z,58.51
2023-03-29T13:31:12.080Z,60.99
2023-03-29T13:32:11.997Z,71.03
2023-03-29T13:33:11.963Z,73.97
2023-03-29T13:34:12.673Z,75.74
2023-03-29T13:35:11.975Z,77.40
2023-03-29T13:36:11.991Z,83.18
2023-03-29T13:37:11.960Z,86.62
2023-03-29T13:38:11.900Z,85.00
2023-03-29T13:39:11.890Z,92.86
2023-03-29T13:40:11.908Z,97.72
2023-03-29T13:41:11.876Z,97.42
2023-03-29T13:42:11.873Z,100.25
2023-03-29T13:43:11.835Z,100.85
2023-03-29T13:44:11.808Z,101.09
2023-03-29T13:45:11.823Z,101.80
2023-03-29T13:46:11.862Z,102.97
2023-03-29T13:47:11.800Z,106.06
2023-03-29T13:48:11.789Z,112.49
2023-03-29T13:49:11.879Z,112.00
2023-03-29T13:50:11.790Z,113.71
2023-03-29T13:51:12.420Z,116.66
2023-03-29T13:52:11.880Z,116.92
2023-03-29T13:53:11.951Z,117.04
2023-03-29T13:54:11.976Z,118.71
2023-03-29T13:55:11.921Z,119.40
2023-03-29T13:56:11.938Z,121.99
2023-03-29T13:57:12.034Z,124.09
2023-03-29T13:58:12.375Z,124.33
2023-03-29T13:59:11.950Z,123.92
2023-03-29T14:00:12.030Z,126.42
2023-03-29T14:01:12.009Z,125.64
2023-03-29T14:02:12.091Z,128.78
2023-03-29T14:03:12.073Z,126.84
2023-03-29T14:04:11.976Z,129.19
2023-03-29T14:05:12.033Z,130.56
2023-03-29T14:06:12.014Z,131.14
2023-03-29T14:07:12.052Z,129.95
2023-03-29T14:08:12.080Z,133.03
2023-03-29T14:09:12.078Z,134.68
2023-03-29T14:10:12.059Z,134.83
2023-03-29T14:11:12.059Z,136.36
2023-03-29T14:12:12.105Z,138.35
2023-03-29T14:13:12.153Z,139.03
2023-03-29T14:14:12.108Z,138.70
2023-03-29T14:15:12.160Z,138.99
2023-03-29T14:16:13.047Z,139.75
2023-03-29T14:17:12.267Z,142.54
2023-03-29T14:18:13.501Z,142.46
2023-03-29T14:19:12.162Z,142.69
2023-03-29T14:20:12.245Z,143.05
2023-03-29T14:21:12.172Z,143.25
2023-03-29T14:22:12.125Z,143.86
2023-03-29T14:23:13.324Z,145.63
2023-03-29T14:24:12.124Z,142.71
2023-03-29T14:25:12.895Z,143.32
2023-03-29T14:26:12.112Z,144.77
2023-03-29T14:27:12.145Z,146.68
2023-03-29T14:28:12.103Z,149.31
2023-03-29T14:29:12.145Z,149.59
2023-03-29T14:30:12.107Z,149.14
2023-03-29T14:31:12.922Z,150.86
2023-03-29T14:32:12.118Z,149.52
2023-03-29T14:33:12.136Z,150.84
2023-03-29T14:34:12.077Z,150.04
2023-03-29T14:35:12.078Z,150.35
2023-03-29T14:36:12.181Z,150.69
2023-03-29T14:37:12.161Z,151.10
2023-03-29T14:38:12.082Z,151.48
2023-03-29T14:39:12.135Z,152.01
2023-03-29T14:40:12.079Z,154.54
2023-03-29T14:41:12.091Z,153.78
2023-03-29T14:42:12.073Z,152.00
2023-03-29T14:43:12.104Z,152.61
2023-03-29T14:44:12.021Z,150.88
2023-03-29T14:45:12.033Z,153.27
2023-03-29T14:46:12.051Z,152.62
2023-03-29T14:47:12.000Z,152.22
2023-03-29T14:48:12.077Z,151.56
2023-03-29T14:49:12.025Z,151.61
2023-03-29T14:50:11.976Z,149.99
2023-03-29T14:51:11.971Z,153.75
2023-03-29T14:52:12.009Z,152.70
2023-03-29T14:53:12.411Z,149.72
2023-03-29T14:54:11.980Z,152.44
2023-03-29T14:55:12.009Z,153.69
2023-03-29T14:56:11.953Z,152.51
2023-03-29T14:57:12.005Z,153.34
2023-03-29T14:58:12.398Z,152.85
2023-03-29T14:59:11.985Z,152.27
2023-03-29T15:00:11.924Z,152.23
2023-03-29T15:01:11.954Z,153.19
2023-03-29T15:02:11.960Z,151.32
2023-03-29T15:03:12.453Z,151.80
2023-03-29T15:04:11.929Z,152.14
2023-03-29T15:05:11.965Z,151.36
2023-03-29T15:06:11.958Z,151.43
2023-03-29T15:07:11.959Z,152.79
2023-03-29T15:08:12.006Z,150.76
2023-03-29T15:09:12.044Z,150.97
2023-03-29T15:10:12.005Z,150.78
2023-03-29T15:11:11.963Z,151.93
2023-03-29T15:12:11.972Z,151.48
2023-03-29T15:13:11.959Z,153.18
2023-03-29T15:14:11.939Z,152.65
2023-03-29T15:15:11.930Z,152.56
2023-03-29T15:16:12.307Z,152.76
2023-03-29T15:17:11.983Z,151.53
2023-03-29T15:18:11.981Z,150.83
2023-03-29T15:19:11.965Z,150.21
2023-03-29T15:20:11.956Z,147.78
2023-03-29T15:21:11.963Z,149.07
2023-03-29T15:22:11.947Z,151.76
2023-03-29T15:23:11.944Z,151.61
2023-03-29T15:24:11.920Z,148.94
2023-03-29T15:25:11.926Z,150.28
2023-03-29T15:26:11.931Z,151.00
2023-03-29T15:27:11.976Z,150.89
2023-03-29T15:28:11.925Z,151.08
2023-03-29T15:29:11.895Z,151.19
2023-03-29T15:30:11.909Z,151.34
2023-03-29T15:31:12.077Z,151.34
2023-03-29T15:32:12.023Z,151.95
2023-03-29T15:33:11.968Z,150.73
2023-03-29T15:34:11.894Z,150.61
2023-03-29T15:35:11.877Z,147.83
2023-03-29T15:36:11.890Z,144.07
2023-03-29T15:37:11.880Z,143.85
2023-03-29T15:38:11.843Z,136.86
2023-03-29T15:39:11.878Z,129.96
2023-03-29T15:40:12.962Z,125.87
2023-03-29T15:41:12.060Z,123.43
2023-03-29T15:42:11.988Z,123.97
2023-03-29T15:43:12.034Z,120.57
2023-03-29T15:44:12.040Z,121.52
2023-03-29T15:45:12.061Z,118.30
2023-03-29T15:46:12.074Z,115.86
2023-03-29T15:47:12.107Z,111.64
2023-03-29T15:48:12.135Z,109.45
2023-03-29T15:49:12.101Z,110.58
2023-03-29T15:50:12.130Z,108.08
2023-03-29T15:51:12.138Z,104.52
2023-03-29T15:52:12.238Z,103.34
2023-03-29T15:53:15.378Z,100.76
2023-03-29T15:54:12.208Z,104.27
2023-03-29T15:55:12.171Z,101.84
2023-03-29T15:56:12.185Z,100.24
2023-03-29T15:57:12.249Z,99.59
2023-03-29T15:58:12.385Z,98.59
2023-03-29T15:59:12.185Z,96.36
2023-03-29T16:00:12.155Z,94.74
2023-03-29T16:01:12.183Z,93.15
2023-03-29T16:02:12.155Z,93.43
2023-03-29T16:03:12.459Z,93.53
2023-03-29T16:04:12.183Z,92.22
2023-03-29T16:05:12.129Z,90.48
2023-03-29T16:06:12.118Z,87.05
2023-03-29T16:07:12.095Z,87.04
2023-03-29T16:08:12.105Z,88.12
2023-03-29T16:09:12.191Z,88.24
2023-03-29T16:10:12.145Z,87.60
2023-03-29T16:11:12.092Z,91.00
2023-03-29T16:12:12.078Z,92.83
2023-03-29T16:13:12.079Z,93.08
2023-03-29T16:14:12.084Z,95.03
2023-03-29T16:15:12.073Z,98.47
2023-03-29T16:16:12.105Z,97.72
2023-03-29T16:17:12.090Z,98.94
2023-03-29T16:18:12.056Z,100.62
2023-03-29T16:19:12.058Z,101.11
2023-03-29T16:20:12.055Z,101.87
2023-03-29T16:21:12.528Z,102.11
2023-03-29T16:22:12.098Z,101.42
2023-03-29T16:23:12.350Z,100.04
2023-03-29T16:24:12.149Z,97.35
2023-03-29T16:25:12.212Z,97.22
2023-03-29T16:26:12.189Z,94.58
2023-03-29T16:27:12.230Z,92.90
2023-03-29T16:28:12.266Z,93.78
2023-03-29T16:29:12.277Z,90.41
2023-03-29T16:30:12.301Z,92.82
2023-03-29T16:31:12.474Z,92.20
2023-03-29T16:32:12.445Z,94.80
2023-03-29T16:33:12.384Z,89.46
2023-03-29T16:34:12.408Z,91.10
2023-03-29T16:35:12.443Z,90.37
2023-03-29T16:36:12.583Z,91.55
2023-03-29T16:37:12.483Z,91.20
2023-03-29T16:38:12.561Z,90.64
2023-03-29T16:39:12.562Z,89.93
2023-03-29T16:40:12.623Z,89.27
2023-03-29T16:41:12.691Z,89.09
2023-03-29T16:42:12.653Z,86.14
2023-03-29T16:43:12.661Z,87.36
2023-03-29T16:44:12.700Z,85.71
2023-03-29T16:45:12.814Z,84.71
2023-03-29T16:46:12.882Z,87.70
2023-03-29T16:47:12.814Z,82.44
2023-03-29T16:48:12.932Z,81.74
2023-03-29T16:49:12.915Z,81.34
2023-03-29T16:50:12.955Z,81.69
2023-03-29T16:51:12.962Z,79.62
2023-03-29T16:52:13.051Z,75.36
2023-03-29T16:53:13.023Z,75.66
2023-03-29T16:54:13.062Z,77.09
2023-03-29T16:55:13.086Z,77.17
2023-03-29T16:56:13.191Z,76.57
2023-03-29T16:57:13.329Z,79.68
2023-03-29T16:58:13.195Z,81.97
2023-03-29T16:59:13.228Z,82.17
2023-03-29T17:00:13.309Z,81.44
2023-03-29T17:01:13.362Z,82.77
2023-03-29T17:02:13.322Z,83.68
2023-03-29T17:03:13.420Z,87.18
2023-03-29T17:04:13.518Z,83.18
2023-03-29T17:05:13.411Z,88.79
2023-03-29T17:06:13.453Z,85.83
2023-03-29T17:07:13.486Z,86.93
2023-03-29T17:08:13.529Z,90.32
2023-03-29T17:09:13.563Z,88.79
2023-03-29T17:10:13.621Z,88.67
2023-03-29T17:11:13.650Z,88.89
2023-03-29T17:12:13.672Z,87.75
2023-03-29T17:13:13.693Z,90.80
2023-03-29T17:14:13.741Z,90.11
2023-03-29T17:15:13.786Z,90.46
2023-03-29T17:16:13.845Z,89.01
2023-03-29T17:17:13.814Z,91.69
2023-03-29T17:18:13.998Z,90.53
2023-03-29T17:19:13.917Z,92.40
2023-03-29T17:20:13.956Z,93.09
2023-03-29T17:21:13.961Z,91.31
2023-03-29T17:22:13.995Z,93.73
2023-03-29T17:23:14.067Z,93.54
2023-03-29T17:24:14.082Z,95.01
2023-03-29T17:25:14.093Z,92.61
2023-03-29T17:26:14.101Z,92.83
2023-03-29T17:27:14.094Z,93.48
2023-03-29T17:28:14.072Z,93.38
2023-03-29T17:29:14.075Z,95.82
2023-03-29T17:30:14.075Z,94.31
2023-03-29T17:31:14.113Z,96.40
2023-03-29T17:32:14.075Z,95.04
2023-03-29T17:33:14.066Z,99.79
2023-03-29T17:34:14.081Z,95.80
2023-03-29T17:35:14.075Z,95.41
2023-03-29T17:36:14.131Z,96.07
2023-03-29T17:37:14.069Z,94.31
2023-03-29T17:38:14.112Z,96.16
2023-03-29T17:39:14.089Z,97.46
2023-03-29T17:40:14.199Z,94.82
2023-03-29T17:41:14.134Z,96.26
2023-03-29T17:42:14.179Z,97.61
2023-03-29T17:43:14.235Z,99.37
2023-03-29T17:44:14.286Z,97.03
2023-03-29T17:45:14.348Z,97.79
2023-03-29T17:46:14.386Z,98.90
2023-03-29T17:47:14.388Z,96.38
2023-03-29T17:48:14.497Z,97.09
2023-03-29T17:49:14.497Z,100.69
2023-03-29T17:50:14.959Z,96.94
2023-03-29T17:51:14.586Z,98.72
2023-03-29T17:52:14.595Z,97.65
2023-03-29T17:53:14.667Z,97.50
2023-03-29T17:54:14.687Z,97.37
2023-03-29T17:55:14.733Z,98.86
2023-03-29T17:56:14.772Z,97.58
2023-03-29T17:57:14.830Z,98.27
2023-03-29T17:58:14.869Z,94.92
2023-03-29T17:59:14.908Z,98.68
2023-03-29T18:00:14.950Z,99.69
2023-03-29T18:01:15.089Z,97.76
2023-03-29T18:02:15.131Z,99.78
2023-03-29T18:03:15.103Z,99.16
2023-03-29T18:04:15.126Z,97.92
2023-03-29T18:05:15.162Z,99.27
2023-03-29T18:06:15.220Z,98.28
2023-03-29T18:07:15.248Z,97.79
2023-03-29T18:08:15.278Z,96.54
2023-03-29T18:09:15.329Z,97.93
2023-03-29T18:10:15.371Z,98.85
2023-03-29T18:11:15.421Z,98.45
2023-03-29T18:12:15.445Z,96.77
2023-03-29T18:13:15.547Z,100.05
2023-03-29T18:14:15.577Z,99.32
2023-03-29T18:15:15.599Z,96.07
2023-03-29T18:16:15.745Z,97.14
2023-03-29T18:17:15.689Z,98.86
2023-03-29T18:18:15.750Z,95.65
2023-03-29T18:19:15.778Z,97.15
2023-03-29T18:20:15.833Z,94.26
2023-03-29T18:21:15.900Z,97.74
2023-03-29T18:22:15.897Z,96.90
2023-03-29T18:23:15.943Z,96.95
2023-03-29T18:24:16.018Z,97.69
2023-03-29T18:25:16.054Z,97.04
2023-03-29T18:26:16.090Z,98.20
2023-03-29T18:27:16.142Z,97.90
2023-03-29T18:28:16.187Z,97.73
2023-03-29T18:29:16.299Z,95.75
2023-03-29T18:30:16.288Z,95.43
2023-03-29T18:31:16.481Z,98.01
2023-03-29T18:32:16.466Z,98.22
2023-03-29T18:33:16.435Z,97.01
2023-03-29T18:34:16.468Z,97.82
2023-03-29T18:35:16.525Z,93.37
2023-03-29T18:36:16.606Z,93.66
2023-03-29T18:37:16.514Z,94.33
2023-03-29T18:38:16.580Z,95.31
2023-03-29T18:39:16.568Z,94.88
2023-03-29T18:40:16.549Z,96.41
2023-03-29T18:41:16.552Z,98.35
2023-03-29T18:42:16.588Z,97.37
2023-03-29T18:43:16.568Z,95.74
2023-03-29T18:44:16.582Z,97.39
2023-03-29T18:45:16.574Z,96.05
2023-03-29T18:46:16.634Z,96.37
2023-03-29T18:47:16.604Z,95.47
2023-03-29T18:48:16.586Z,92.28
2023-03-29T18:49:16.618Z,95.72
2023-03-29T18:50:16.672Z,96.01
2023-03-29T18:51:16.765Z,94.63
2023-03-29T18:52:16.783Z,93.81
2023-03-29T18:53:16.817Z,96.43
2023-03-29T18:54:16.963Z,96.27
2023-03-29T18:55:16.920Z,96.42
2023-03-29T18:56:16.988Z,94.18
2023-03-29T18:57:17.075Z,95.62
2023-03-29T18:58:17.090Z,93.03
2023-03-29T18:59:17.158Z,95.25
2023-03-29T19:00:17.200Z,93.41
2023-03-29T19:01:17.276Z,96.91
2023-03-29T19:02:17.341Z,94.82
2023-03-29T19:03:17.456Z,92.15